createdAt,value
2022-12-01T00:01:17.841Z,98894.22
2022-12-01T00:03:44.379Z,98897.50
2022-12-01T00:06:17.793Z,98894.22
2022-12-01T00:09:06.190Z,98888.06
2022-12-01T00:11:34.258Z,98889.50
2022-12-01T00:14:01.426Z,98891.34
2022-12-01T00:16:28.127Z,98886.63
2022-12-01T00:18:54.882Z,98881.91
2022-12-01T00:21:23.680Z,98888.47
2022-12-01T00:23:52.978Z,98894.84
2022-12-01T00:26:20.790Z,98880.25
2022-12-01T00:28:52.420Z,98888.88
2022-12-01T00:31:19.830Z,98885.00
2022-12-01T00:33:46.385Z,98887.66
2022-12-01T00:36:13.599Z,98891.13
2022-12-01T00:38:40.108Z,98896.06
2022-12-01T00:41:06.547Z,98892.97
2022-12-01T00:43:33.078Z,98890.34
2022-12-01T00:45:59.684Z,98886.41
2022-12-01T00:48:26.178Z,98888.09
2022-12-01T00:50:54.065Z,98886.41
2022-12-01T00:53:21.073Z,98888.91
2022-12-01T00:55:47.576Z,98888.47
2022-12-01T00:58:14.024Z,98887.22
2022-12-01T01:00:40.584Z,98880.88
2022-12-01T01:03:07.068Z,98886.00
2022-12-01T01:05:37.929Z,98883.94
2022-12-01T01:08:09.202Z,98884.78
2022-12-01T01:10:46.896Z,98886.41
2022-12-01T01:13:14.410Z,98886.41
2022-12-01T01:15:41.477Z,98891.75
2022-12-01T01:18:09.701Z,98886.81
2022-12-01T01:20:36.229Z,98891.97
2022-12-01T01:23:02.660Z,98888.06
2022-12-01T01:25:29.043Z,98891.75
2022-12-01T01:27:55.435Z,98889.09
2022-12-01T01:30:21.995Z,98888.69
2022-12-01T01:32:48.475Z,98888.88
2022-12-01T01:35:14.994Z,98891.34
2022-12-01T01:37:41.600Z,98891.56
2022-12-01T01:40:08.814Z,98894.22
2022-12-01T01:42:35.312Z,98894.22
2022-12-01T01:45:01.807Z,98897.91
2022-12-01T01:47:32.898Z,98891.75
2022-12-01T01:50:06.577Z,98889.91
2022-12-01T01:52:35.967Z,98891.97
2022-12-01T01:55:02.874Z,98887.44
2022-12-01T01:57:33.288Z,98888.66
2022-12-01T02:00:08.000Z,98897.50
2022-12-01T02:02:40.735Z,98886.63
2022-12-01T02:05:11.170Z,98899.13
2022-12-01T02:07:39.314Z,98886.41
2022-12-01T02:10:09.029Z,98882.31
2022-12-01T02:13:09.736Z,98883.94
2022-12-01T02:15:44.884Z,98882.72
2022-12-01T02:18:41.621Z,98893.41
2022-12-01T02:21:13.837Z,98892.16
2022-12-01T02:24:13.888Z,98897.91
2022-12-01T02:26:49.680Z,98888.06
2022-12-01T02:29:33.626Z,98882.13
2022-12-01T02:32:25.180Z,98880.06
2022-12-01T02:35:18.872Z,98879.44
2022-12-01T02:38:12.521Z,98877.00
2022-12-01T02:41:01.648Z,98875.97
2022-12-01T02:43:43.279Z,98875.34
2022-12-01T02:46:15.130Z,98877.78
2022-12-01T02:48:46.810Z,98876.78
2022-12-01T02:51:24.894Z,98885.38
2022-12-01T02:53:52.553Z,98885.19
2022-12-01T02:56:21.823Z,98881.09
2022-12-01T02:58:48.283Z,98890.53
2022-12-01T03:01:46.231Z,98884.16
2022-12-01T03:04:40.072Z,98892.59
2022-12-01T03:07:37.641Z,98884.13
2022-12-01T03:10:20.647Z,98873.28
2022-12-01T03:13:05.272Z,98883.94
2022-12-01T03:16:04.681Z,98880.25
2022-12-01T03:18:47.057Z,98883.31
2022-12-01T03:21:38.270Z,98883.34
2022-12-01T03:24:14.120Z,98880.47
2022-12-01T03:26:44.604Z,98876.53
2022-12-01T03:29:18.080Z,98881.88
2022-12-01T03:31:47.142Z,98885.78
2022-12-01T03:34:19.984Z,98876.53
2022-12-01T03:36:51.875Z,98877.75
2022-12-01T03:39:23.716Z,98871.63
2022-12-01T03:42:15.674Z,98872.88
2022-12-01T03:44:49.575Z,98878.81
2022-12-01T03:47:20.909Z,98870.81
2022-12-01T03:49:50.892Z,98878.63
2022-12-01T03:52:33.511Z,98879.63
2022-12-01T03:55:14.372Z,98882.69
2022-12-01T03:58:02.362Z,98882.28
2022-12-01T04:00:31.186Z,98876.97
2022-12-01T04:02:59.670Z,98879.63
2022-12-01T04:05:26.881Z,98885.75
2022-12-01T04:07:53.606Z,98883.50
2022-12-01T04:10:20.247Z,98883.53
2022-12-01T04:12:46.659Z,98883.13
2022-12-01T04:15:14.509Z,98881.47
2022-12-01T04:17:45.149Z,98889.28
2022-12-01T04:20:14.292Z,98886.00
2022-12-01T04:22:41.449Z,98889.47
2022-12-01T04:25:08.648Z,98889.06
2022-12-01T04:27:35.789Z,98890.28
2022-12-01T04:30:03.043Z,98888.66
2022-12-01T04:32:29.439Z,98894.81
2022-12-01T04:34:55.843Z,98893.78
2022-12-01T04:37:22.333Z,98891.72
2022-12-01T04:39:49.120Z,98890.69
2022-12-01T04:42:15.814Z,98883.53
2022-12-01T04:44:42.277Z,98892.56
2022-12-01T04:47:08.857Z,98890.91
2022-12-01T04:49:37.151Z,98890.31
2022-12-01T04:52:03.843Z,98893.41
2022-12-01T04:54:30.310Z,98896.66
2022-12-01T04:56:56.777Z,98900.97
2022-12-01T04:59:23.222Z,98896.25
2022-12-01T05:01:49.670Z,98903.22
2022-12-01T05:04:16.297Z,98898.28
2022-12-01T05:06:43.354Z,98906.69
2022-12-01T05:09:17.119Z,98901.19
2022-12-01T05:11:44.859Z,98899.34
2022-12-01T05:14:11.349Z,98896.06
2022-12-01T05:16:37.828Z,98902.00
2022-12-01T05:19:24.797Z,98901.19
2022-12-01T05:21:52.009Z,98910.19
2022-12-01T05:24:19.550Z,98906.09
2022-12-01T05:26:46.320Z,98901.19
2022-12-01T05:29:13.944Z,98905.25
2022-12-01T05:31:41.077Z,98914.28
2022-12-01T05:34:08.428Z,98915.16
2022-12-01T05:36:34.921Z,98910.59
2022-12-01T05:39:01.454Z,98902.00
2022-12-01T05:41:27.899Z,98911.03
2022-12-01T05:43:54.362Z,98914.53
2022-12-01T05:46:20.870Z,98912.25
2022-12-01T05:48:47.389Z,98915.34
2022-12-01T05:51:16.037Z,98913.88
2022-12-01T05:53:43.480Z,98913.69
2022-12-01T05:56:10.014Z,98915.56
2022-12-01T05:58:36.533Z,98915.34
2022-12-01T06:01:03.240Z,98908.78
2022-12-01T06:03:29.690Z,98921.06
2022-12-01T06:05:56.213Z,98915.97
2022-12-01T06:08:22.630Z,98923.75
2022-12-01T06:10:49.078Z,98922.13
2022-12-01T06:13:15.558Z,98917.81
2022-12-01T06:15:42.312Z,98924.56
2022-12-01T06:18:09.301Z,98923.97
2022-12-01T06:20:35.951Z,98928.25
2022-12-01T06:23:02.740Z,98920.03
2022-12-01T06:25:29.228Z,98931.53
2022-12-01T06:27:59.211Z,98932.38
2022-12-01T06:30:26.061Z,98929.50
2022-12-01T06:32:52.651Z,98930.53
2022-12-01T06:35:19.651Z,98932.97
2022-12-01T06:37:46.134Z,98926.41
2022-12-01T06:40:12.798Z,98923.66
2022-12-01T06:42:39.211Z,98934.94
2022-12-01T06:45:06.068Z,98938.47
2022-12-01T06:47:32.500Z,98940.91
2022-12-01T06:49:59.034Z,98938.47
2022-12-01T06:52:25.466Z,98938.44
2022-12-01T06:54:51.918Z,98940.50
2022-12-01T06:57:18.724Z,98943.97
2022-12-01T06:59:45.338Z,98939.88
2022-12-01T07:02:12.172Z,98935.50
2022-12-01T07:04:38.825Z,98945.84
2022-12-01T07:07:06.354Z,98944.53
2022-12-01T07:09:32.896Z,98951.56
2022-12-01T07:11:59.363Z,98942.59
2022-12-01T07:14:27.055Z,98954.94
2022-12-01T07:16:53.808Z,98947.00
2022-12-01T07:19:20.369Z,98952.41
2022-12-01T07:21:46.885Z,98948.44
2022-12-01T07:24:13.847Z,98954.41
2022-12-01T07:26:41.297Z,98960.53
2022-12-01T07:29:09.189Z,98957.25
2022-12-01T07:31:36.735Z,98966.56
2022-12-01T07:34:03.514Z,98962.47
2022-12-01T07:36:30.028Z,98966.19
2022-12-01T07:38:56.662Z,98965.00
2022-12-01T07:41:23.218Z,98976.06
2022-12-01T07:43:50.042Z,98971.63
2022-12-01T07:46:27.351Z,98977.78
2022-12-01T07:48:55.716Z,98967.13
2022-12-01T07:51:23.507Z,98988.84
2022-12-01T07:53:51.056Z,98986.56
2022-12-01T07:56:19.093Z,98982.47
2022-12-01T07:58:45.649Z,98990.19
2022-12-01T08:01:17.176Z,98989.44
2022-12-01T08:03:43.838Z,98986.69
2022-12-01T08:06:11.710Z,98997.41
2022-12-01T08:08:39.769Z,99003.38
2022-12-01T08:11:10.080Z,99007.72
2022-12-01T08:13:36.608Z,99002.19
2022-12-01T08:16:05.395Z,99001.22
2022-12-01T08:18:35.475Z,99005.78
2022-12-01T08:21:01.956Z,98999.66
2022-12-01T08:23:28.436Z,99000.44
2022-12-01T08:25:55.044Z,99001.22
2022-12-01T08:28:21.510Z,98995.88
2022-12-01T08:30:48.104Z,99002.31
2022-12-01T08:33:15.856Z,99003.22
2022-12-01T08:35:42.454Z,99000.41
2022-12-01T08:38:09.324Z,98992.78
2022-12-01T08:40:35.827Z,98994.66
2022-12-01T08:43:02.405Z,98997.91
2022-12-01T08:45:28.922Z,99001.91
2022-12-01T08:47:58.988Z,99012.19
2022-12-01T08:50:27.233Z,98997.25
2022-12-01T08:52:54.255Z,99006.66
2022-12-01T08:55:22.227Z,99004.72
2022-12-01T08:57:48.706Z,99009.16
2022-12-01T09:00:16.177Z,99009.19
2022-12-01T09:02:42.643Z,99010.34
2022-12-01T09:05:09.722Z,99005.75
2022-12-01T09:07:36.248Z,99003.50
2022-12-01T09:10:02.747Z,99006.97
2022-12-01T09:12:30.181Z,99009.72
2022-12-01T09:14:56.768Z,99010.97
2022-12-01T09:17:23.819Z,99017.31
2022-12-01T09:19:50.497Z,99021.66
2022-12-01T09:22:17.321Z,99018.56
2022-12-01T09:24:43.921Z,99014.00
2022-12-01T09:27:10.451Z,99018.97
2022-12-01T09:29:36.958Z,99012.16
2022-12-01T09:32:03.487Z,99016.28
2022-12-01T09:34:30.062Z,99011.34
2022-12-01T09:36:57.623Z,99014.81
2022-12-01T09:39:24.666Z,99013.38
2022-12-01T09:41:58.433Z,99011.75
2022-12-01T09:44:43.901Z,99015.91
2022-12-01T09:47:21.928Z,99019.59
2022-12-01T09:50:24.016Z,99021.22
2022-12-01T09:53:03.081Z,99019.81
2022-12-01T09:55:31.587Z,99022.19
2022-12-01T09:58:00.961Z,99018.00
2022-12-01T10:00:31.627Z,99013.53
2022-12-01T10:03:13.911Z,99011.25
2022-12-01T10:06:18.561Z,99013.97
2022-12-01T10:08:36.751Z,99006.41
2022-12-01T10:11:27.505Z,99009.53
2022-12-01T10:13:54.021Z,99008.19
2022-12-01T10:16:28.793Z,99002.56
2022-12-01T10:19:18.192Z,99008.28
2022-12-01T10:21:55.466Z,98998.34
2022-12-01T10:24:31.649Z,99006.19
2022-12-01T10:27:16.251Z,98998.81
2022-12-01T10:29:58.656Z,99000.47
2022-12-01T10:32:53.911Z,99001.19
2022-12-01T10:35:26.907Z,98997.78
2022-12-01T10:38:07.239Z,98990.22
2022-12-01T10:40:35.268Z,98986.97
2022-12-01T10:43:02.399Z,98984.34
2022-12-01T10:45:33.836Z,98980.41
2022-12-01T10:48:20.642Z,98989.47
2022-12-01T10:50:54.922Z,98981.06
2022-12-01T10:53:24.445Z,98979.63
2022-12-01T10:55:58.261Z,98983.94
2022-12-01T10:58:24.686Z,98967.28
2022-12-01T11:01:16.884Z,98977.34
2022-12-01T11:03:43.875Z,98971.00
2022-12-01T11:06:10.850Z,98978.84
2022-12-01T11:08:45.490Z,98982.91
2022-12-01T11:11:34.264Z,98973.91
2022-12-01T11:14:05.172Z,98962.84
2022-12-01T11:16:33.859Z,98974.94
2022-12-01T11:19:28.224Z,98974.13
2022-12-01T11:21:57.770Z,98970.81
2022-12-01T11:24:30.740Z,98968.97
2022-12-01T11:26:59.187Z,98971.22
2022-12-01T11:29:35.993Z,98964.22
2022-12-01T11:32:14.318Z,98958.91
2022-12-01T11:34:40.805Z,98967.34
2022-12-01T11:37:15.257Z,98956.47
2022-12-01T11:39:44.499Z,98966.53
2022-12-01T11:42:13.649Z,98964.66
2022-12-01T11:44:51.970Z,98960.97
2022-12-01T11:47:23.749Z,98967.94
2022-12-01T11:50:02.900Z,98964.84
2022-12-01T11:52:32.071Z,98954.81
2022-12-01T11:57:52.362Z,98965.69
2022-12-01T12:00:20.582Z,98965.47
2022-12-01T12:02:56.064Z,98953.97
2022-12-01T12:05:42.239Z,98958.69
2022-12-01T12:08:20.802Z,98954.59
2022-12-01T12:10:47.231Z,98952.72
2022-12-01T12:13:16.399Z,98954.00
2022-12-01T12:16:01.090Z,98951.31
2022-12-01T12:18:46.247Z,98957.91
2022-12-01T12:21:41.277Z,98948.84
2022-12-01T12:24:13.523Z,98948.03
2022-12-01T12:27:10.865Z,98955.44
2022-12-01T12:29:46.068Z,98942.47
2022-12-01T12:32:54.644Z,98936.72
2022-12-01T12:35:39.913Z,98946.41
2022-12-01T12:38:40.574Z,98936.13
2022-12-01T12:41:22.192Z,98934.47
2022-12-01T12:44:10.348Z,98936.31
2022-12-01T12:47:06.885Z,98935.28
2022-12-01T12:49:52.174Z,98934.88
2022-12-01T12:52:24.021Z,98937.34
2022-12-01T12:54:58.927Z,98929.56
2022-12-01T12:57:35.808Z,98926.25
2022-12-01T13:00:13.578Z,98929.53
2022-12-01T13:03:10.805Z,98927.50
2022-12-01T13:05:57.517Z,98921.31
2022-12-01T13:08:59.181Z,98927.91
2022-12-01T13:11:31.935Z,98930.34
2022-12-01T13:14:07.343Z,98923.19
2022-12-01T13:16:37.333Z,98928.53
2022-12-01T13:19:19.360Z,98927.06
2022-12-01T13:21:49.129Z,98917.84
2022-12-01T13:24:25.079Z,98925.41
2022-12-01T13:26:56.906Z,98930.75
2022-12-01T13:29:25.840Z,98913.75
2022-12-01T13:31:54.456Z,98914.34
2022-12-01T13:34:38.391Z,98913.09
2022-12-01T13:37:05.310Z,98920.50
2022-12-01T13:39:35.749Z,98909.00
2022-12-01T13:42:07.060Z,98911.06
2022-12-01T13:44:43.145Z,98918.44
2022-12-01T13:47:12.655Z,98911.66
2022-12-01T13:49:46.148Z,98912.28
2022-12-01T13:52:15.467Z,98911.84
2022-12-01T13:55:08.686Z,98908.19
2022-12-01T13:58:13.129Z,98915.56
2022-12-01T14:00:40.057Z,98902.22
2022-12-01T14:03:12.813Z,98908.59
2022-12-01T14:05:42.225Z,98910.81
2022-12-01T14:08:23.406Z,98911.03
2022-12-01T14:11:29.713Z,98920.50
2022-12-01T14:14:12.168Z,98919.66
2022-12-01T14:16:47.948Z,98918.00
2022-12-01T14:20:08.241Z,98925.41
2022-12-01T14:22:45.475Z,98924.38
2022-12-01T14:25:20.787Z,98926.59
2022-12-01T14:27:50.614Z,98924.34
2022-12-01T14:30:45.880Z,98928.94
2022-12-01T14:33:44.966Z,98929.75
2022-12-01T14:36:26.949Z,98915.00
2022-12-01T14:38:59.598Z,98922.59
2022-12-01T14:41:46.759Z,98924.06
2022-12-01T14:44:39.588Z,98925.78
2022-12-01T14:47:22.991Z,98921.47
2022-12-01T14:50:12.131Z,98929.47
2022-12-01T14:52:43.519Z,98931.09
2022-12-01T14:55:18.192Z,98925.91
2022-12-01T14:57:52.409Z,98931.94
2022-12-01T15:00:24.317Z,98934.16
2022-12-01T15:03:14.137Z,98928.59
2022-12-01T15:05:43.502Z,98933.97
2022-12-01T15:08:40.898Z,98927.19
2022-12-01T15:11:25.384Z,98931.25
2022-12-01T15:13:54.508Z,98935.19
2022-12-01T15:16:23.795Z,98934.72
2022-12-01T15:18:50.764Z,98931.00
2022-12-01T15:21:21.992Z,98933.50
2022-12-01T15:24:00.435Z,98943.75
2022-12-01T15:26:37.218Z,98936.75
2022-12-01T15:29:16.679Z,98931.81
2022-12-01T15:31:47.517Z,98936.34
2022-12-01T15:34:18.244Z,98939.63
2022-12-01T15:36:45.630Z,98930.81
2022-12-01T15:39:30.357Z,98938.41
2022-12-01T15:41:57.037Z,98934.28
2022-12-01T15:44:28.448Z,98938.97
2022-12-01T15:46:55.148Z,98935.28
2022-12-01T15:49:29.268Z,98934.06
2022-12-01T15:52:05.739Z,98935.50
2022-12-01T15:54:32.585Z,98936.31
2022-12-01T15:56:59.773Z,98937.16
2022-12-01T15:59:31.183Z,98930.59
2022-12-01T16:01:58.459Z,98933.09
2022-12-01T16:04:28.338Z,98926.94
2022-12-01T16:07:09.937Z,98931.41
2022-12-01T16:09:59.724Z,98932.66
2022-12-01T16:12:32.989Z,98940.84
2022-12-01T16:15:06.865Z,98933.25
2022-12-01T16:17:51.285Z,98940.81
2022-12-01T16:20:21.702Z,98935.00
2022-12-01T16:22:56.720Z,98935.25
2022-12-01T16:25:39.792Z,98933.41
2022-12-01T16:28:17.289Z,98932.81
2022-12-01T16:30:43.759Z,98934.63
2022-12-01T16:33:17.115Z,98932.97
2022-12-01T16:35:44.032Z,98930.56
2022-12-01T16:38:16.221Z,98938.16
2022-12-01T16:40:43.515Z,98929.28
2022-12-01T16:43:21.004Z,98930.56
2022-12-01T16:45:52.760Z,98930.16
2022-12-01T16:48:20.390Z,98933.03
2022-12-01T16:50:48.204Z,98935.25
2022-12-01T16:53:14.711Z,98934.63
2022-12-01T16:55:54.384Z,98939.94
2022-12-01T16:58:21.175Z,98939.34
2022-12-01T17:00:52.517Z,98941.59
2022-12-01T17:03:24.412Z,98937.13
2022-12-01T17:05:51.727Z,98942.88
2022-12-01T17:08:18.833Z,98950.28
2022-12-01T17:10:49.504Z,98945.53
2022-12-01T17:13:16.800Z,98942.44
2022-12-01T17:15:45.516Z,98942.84
2022-12-01T17:18:13.202Z,98943.25
2022-12-01T17:20:39.775Z,98939.97
2022-12-01T17:23:06.434Z,98936.88
2022-12-01T17:25:33.052Z,98943.25
2022-12-01T17:27:59.710Z,98943.25
2022-12-01T17:30:26.568Z,98946.94
2022-12-01T17:32:52.993Z,98944.28
2022-12-01T17:35:19.450Z,98943.63
2022-12-01T17:37:45.870Z,98940.13
2022-12-01T17:40:16.257Z,98942.41
2022-12-01T17:42:46.955Z,98947.72
2022-12-01T17:45:17.514Z,98946.28
2022-12-01T17:47:43.965Z,98944.81
2022-12-01T17:50:10.778Z,98947.28
2022-12-01T17:52:37.334Z,98941.38
2022-12-01T17:55:04.341Z,98949.38
2022-12-01T17:57:30.966Z,98941.38
2022-12-01T17:59:57.430Z,98942.00
2022-12-01T18:02:24.061Z,98951.41
2022-12-01T18:04:51.008Z,98951.78
2022-12-01T18:07:17.667Z,98948.94
2022-12-01T18:09:44.062Z,98957.13
2022-12-01T18:12:10.842Z,98945.25
2022-12-01T18:14:38.265Z,98953.84
2022-12-01T18:17:05.572Z,98956.06
2022-12-01T18:19:32.030Z,98955.50
2022-12-01T18:21:58.514Z,98953.47
2022-12-01T18:24:24.986Z,98953.66
2022-12-01T18:26:51.547Z,98957.16
2022-12-01T18:29:25.872Z,98960.03
2022-12-01T18:31:56.879Z,98951.38
2022-12-01T18:34:23.849Z,98950.56
2022-12-01T18:36:50.349Z,98943.63
2022-12-01T18:39:16.891Z,98945.63
2022-12-01T18:41:43.802Z,98950.13
2022-12-01T18:44:10.398Z,98952.19
2022-12-01T18:46:37.008Z,98944.81
2022-12-01T18:49:04.689Z,98941.50
2022-12-01T18:51:33.440Z,98949.28
2022-12-01T18:54:01.673Z,98950.59
2022-12-01T18:56:28.838Z,98955.09
2022-12-01T18:58:56.362Z,98951.41
2022-12-01T19:01:37.328Z,98946.31
2022-12-01T19:04:05.687Z,98952.44
2022-12-01T19:06:34.299Z,98945.47
2022-12-01T19:09:03.523Z,98945.66
2022-12-01T19:11:30.212Z,98941.53
2022-12-01T19:13:57.653Z,98946.47
2022-12-01T19:16:24.314Z,98940.13
2022-12-01T19:18:51.158Z,98946.03
2022-12-01T19:21:19.581Z,98940.75
2022-12-01T19:23:47.313Z,98947.72
2022-12-01T19:26:17.661Z,98940.13
2022-12-01T19:28:48.127Z,98941.78
2022-12-01T19:31:17.105Z,98941.94
2022-12-01T19:33:43.632Z,98943.19
2022-12-01T19:36:12.314Z,98949.91
2022-12-01T19:38:39.777Z,98951.56
2022-12-01T19:41:07.451Z,98948.84
2022-12-01T19:43:35.386Z,98945.38
2022-12-01T19:46:13.786Z,98945.59
2022-12-01T19:48:41.218Z,98938.56
2022-12-01T19:51:15.108Z,98950.69
2022-12-01T19:53:41.635Z,98950.47
2022-12-01T19:56:08.173Z,98946.38
2022-12-01T19:58:34.879Z,98953.38
2022-12-01T20:01:06.661Z,98942.53
2022-12-01T20:03:33.568Z,98956.66
2022-12-01T20:06:12.850Z,98956.66
2022-12-01T20:08:39.564Z,98956.66
2022-12-01T20:11:07.109Z,98956.28
2022-12-01T20:13:35.604Z,98958.91
2022-12-01T20:16:09.530Z,98952.91
2022-12-01T20:18:36.625Z,98961.97
2022-12-01T20:21:15.885Z,98960.31
2022-12-01T20:23:47.271Z,98960.28
2022-12-01T20:26:14.795Z,98956.81
2022-12-01T20:28:41.866Z,98957.78
2022-12-01T20:31:11.912Z,98960.63
2022-12-01T20:33:39.593Z,98964.34
2022-12-01T20:36:07.034Z,98955.75
2022-12-01T20:38:34.628Z,98959.84
2022-12-01T20:41:01.102Z,98961.44
2022-12-01T20:43:28.507Z,98963.09
2022-12-01T20:45:55.151Z,98958.56
2022-12-01T20:48:22.066Z,98960.25
2022-12-01T20:50:48.581Z,98970.06
2022-12-01T20:53:15.127Z,98967.19
2022-12-01T20:55:41.612Z,98963.56
2022-12-01T20:58:11.442Z,98969.91
2022-12-01T21:00:40.491Z,98960.28
2022-12-01T21:03:07.857Z,98966.38
2022-12-01T21:05:34.351Z,98961.06
2022-12-01T21:08:01.667Z,98966.41
2022-12-01T21:10:28.614Z,98965.84
2022-12-01T21:13:21.254Z,98946.94
2022-12-01T21:16:01.616Z,98955.19
2022-12-01T21:18:38.698Z,98950.44
2022-12-01T21:21:11.864Z,98948.84
2022-12-01T21:23:38.330Z,98952.34
2022-12-01T21:26:13.886Z,98942.72
2022-12-01T21:28:40.449Z,98945.38
2022-12-01T21:31:15.038Z,98951.09
2022-12-01T21:33:42.529Z,98946.97
2022-12-01T21:36:22.179Z,98936.31
2022-12-01T21:38:53.449Z,98932.44
2022-12-01T21:41:27.170Z,98941.88
2022-12-01T21:44:02.478Z,98943.06
2022-12-01T21:46:29.669Z,98942.72
2022-12-01T21:48:56.164Z,98933.09
2022-12-01T21:51:24.294Z,98932.09
2022-12-01T21:53:53.739Z,98931.63
2022-12-01T21:56:23.904Z,98930.00
2022-12-01T21:58:51.665Z,98928.16
2022-12-01T22:01:32.278Z,98923.78
2022-12-01T22:04:02.384Z,98926.31
2022-12-01T22:06:40.657Z,98928.75
2022-12-01T22:09:26.458Z,98924.84
2022-12-01T22:11:55.890Z,98930.97
2022-12-01T22:14:32.561Z,98923.78
2022-12-01T22:17:05.108Z,98924.03
2022-12-01T22:19:45.496Z,98928.16
2022-12-01T22:22:11.872Z,98922.81
2022-12-01T22:24:47.098Z,98922.72
2022-12-01T22:27:35.033Z,98915.94
2022-12-01T22:30:13.686Z,98924.41
2022-12-01T22:32:58.601Z,98922.72
2022-12-01T22:35:29.497Z,98928.69
2022-12-01T22:38:11.020Z,98932.78
2022-12-01T22:40:47.414Z,98925.78
2022-12-01T22:43:17.225Z,98930.91
2022-12-01T22:45:47.729Z,98930.31
2022-12-01T22:48:38.426Z,98928.28
2022-12-01T22:51:14.099Z,98924.63
2022-12-01T22:53:41.841Z,98929.53
2022-12-01T22:56:30.529Z,98929.34
2022-12-01T22:58:57.226Z,98928.50
2022-12-01T23:01:31.787Z,98936.88
2022-12-01T23:04:26.280Z,98926.22
2022-12-01T23:07:02.442Z,98923.75
2022-12-01T23:09:39.733Z,98918.84
2022-12-01T23:12:12.062Z,98925.78
2022-12-01T23:14:51.262Z,98920.28
2022-12-01T23:17:25.005Z,98926.19
2022-12-01T23:19:52.445Z,98915.53
2022-12-01T23:22:19.356Z,98920.03
2022-12-01T23:24:46.159Z,98920.00
2022-12-01T23:27:18.347Z,98915.88
2022-12-01T23:29:44.918Z,98914.28
2022-12-01T23:32:12.365Z,98914.06
2022-12-01T23:34:38.906Z,98909.22
2022-12-01T23:37:32.977Z,98911.88
2022-12-01T23:39:59.821Z,98909.22
2022-12-01T23:42:26.250Z,98909.81
2022-12-01T23:44:53.267Z,98905.75
2022-12-01T23:47:24.145Z,98908.81
2022-12-01T23:49:57.622Z,98905.31
2022-12-01T23:52:29.316Z,98903.28
2022-12-01T23:54:55.790Z,98893.66
2022-12-01T23:57:24.188Z,98893.44
2022-12-01T23:59:54.514Z,98897.13
